createdAt,value
2022-08-25T00:02:20.275Z,101173.58
2022-08-25T00:05:10.980Z,101174.29
2022-08-25T00:08:03.145Z,101175.48
2022-08-25T00:11:00.331Z,101176.31
2022-08-25T00:13:58.202Z,101178.00
2022-08-25T00:16:49.434Z,101172.01
2022-08-25T00:19:40.789Z,101169.29
2022-08-25T00:22:31.388Z,101166.65
2022-08-25T00:25:23.417Z,101164.89
2022-08-25T00:28:16.785Z,101166.88
2022-08-25T00:31:08.395Z,101169.85
2022-08-25T00:34:00.369Z,101171.21
2022-08-25T00:36:50.926Z,101172.64
2022-08-25T00:39:41.592Z,101174.21
2022-08-25T00:42:32.241Z,101169.73
2022-08-25T00:45:23.365Z,101170.14
2022-08-25T00:48:14.687Z,101169.88
2022-08-25T00:51:06.883Z,101173.59
2022-08-25T00:53:57.986Z,101170.51
2022-08-25T00:56:49.102Z,101173.77
2022-08-25T00:59:40.376Z,101170.30
2022-08-25T01:02:30.617Z,101165.24
2022-08-25T01:05:22.217Z,101161.12
2022-08-25T01:08:13.425Z,101160.17
2022-08-25T01:11:15.464Z,101156.74
2022-08-25T01:14:07.330Z,101160.12
2022-08-25T01:17:00.060Z,101159.70
2022-08-25T01:19:50.238Z,101156.69
2022-08-25T01:22:40.430Z,101160.96
2022-08-25T01:25:43.232Z,101160.08
2022-08-25T01:28:37.533Z,101157.74
2022-08-25T01:31:27.830Z,101161.86
2022-08-25T01:34:19.822Z,101156.80
2022-08-25T01:37:13.475Z,101154.75
2022-08-25T01:40:03.889Z,101151.88
2022-08-25T01:43:08.555Z,101151.55
2022-08-25T01:45:59.767Z,101153.58
2022-08-25T01:48:50.664Z,101153.54
2022-08-25T01:51:48.756Z,101154.48
2022-08-25T01:54:39.758Z,101159.92
2022-08-25T01:57:31.823Z,101159.44
2022-08-25T02:00:24.855Z,101161.38
2022-08-25T02:03:18.724Z,101166.08
2022-08-25T02:06:12.367Z,101166.24
2022-08-25T02:09:08.039Z,101159.89
2022-08-25T02:11:58.653Z,101161.73
2022-08-25T02:14:48.946Z,101161.98
2022-08-25T02:17:39.460Z,101161.07
2022-08-25T02:20:30.541Z,101157.48
2022-08-25T02:23:21.132Z,101149.70
2022-08-25T02:26:16.833Z,101140.27
2022-08-25T02:29:09.698Z,101134.74
2022-08-25T02:32:00.515Z,101135.56
2022-08-25T02:34:50.787Z,101135.07
2022-08-25T02:37:42.051Z,101128.61
2022-08-25T02:40:32.619Z,101132.20
2022-08-25T02:43:23.628Z,101133.67
2022-08-25T02:46:15.085Z,101129.77
2022-08-25T02:49:06.184Z,101128.38
2022-08-25T02:51:58.760Z,101127.89
2022-08-25T02:54:49.057Z,101120.20
2022-08-25T02:57:39.714Z,101119.20
2022-08-25T03:00:32.814Z,101118.23
2022-08-25T03:03:25.832Z,101120.98
2022-08-25T03:06:18.815Z,101118.23
2022-08-25T03:09:10.963Z,101120.02
2022-08-25T03:12:02.230Z,101121.71
2022-08-25T03:14:52.587Z,101122.58
2022-08-25T03:17:45.524Z,101121.39
2022-08-25T03:20:37.002Z,101113.55
2022-08-25T03:23:28.050Z,101111.30
2022-08-25T03:26:35.937Z,101106.53
2022-08-25T03:29:28.644Z,101105.63
2022-08-25T03:32:19.571Z,101102.77
2022-08-25T03:35:11.435Z,101102.79
2022-08-25T03:38:02.392Z,101103.11
2022-08-25T03:44:20.192Z,101112.11
2022-08-25T03:47:11.524Z,101103.52
2022-08-25T03:50:01.988Z,101104.69
2022-08-25T03:52:56.656Z,101111.08
2022-08-25T03:55:47.367Z,101108.23
2022-08-25T03:58:38.095Z,101109.27
2022-08-25T04:01:31.038Z,101109.65
2022-08-25T04:04:21.753Z,101112.27
2022-08-25T04:07:12.391Z,101104.17
2022-08-25T04:10:03.247Z,101099.22
2022-08-25T04:12:56.185Z,101099.06
2022-08-25T04:19:52.212Z,101087.72
2022-08-25T04:22:44.992Z,101085.55
2022-08-25T04:25:35.716Z,101089.54
2022-08-25T04:28:27.610Z,101098.77
2022-08-25T04:31:19.849Z,101095.92
2022-08-25T04:34:29.392Z,101096.91
2022-08-25T04:37:22.214Z,101100.79
2022-08-25T04:40:14.658Z,101104.38
2022-08-25T04:43:05.368Z,101107.19
2022-08-25T04:46:01.903Z,101109.76
2022-08-25T04:48:53.341Z,101111.36
2022-08-25T04:51:45.622Z,101112.59
2022-08-25T04:54:37.292Z,101112.73
2022-08-25T04:57:28.932Z,101106.50
2022-08-25T05:00:21.155Z,101101.35
2022-08-25T05:03:12.393Z,101107.16
2022-08-25T05:06:03.023Z,101108.18
2022-08-25T05:08:56.180Z,101098.75
2022-08-25T05:11:46.555Z,101096.70
2022-08-25T05:14:37.740Z,101094.94
2022-08-25T05:17:28.734Z,101086.64
2022-08-25T05:20:19.236Z,101091.52
2022-08-25T05:23:12.742Z,101102.77
2022-08-25T05:26:08.843Z,101103.48
2022-08-25T05:29:01.820Z,101106.08
2022-08-25T05:31:53.786Z,101105.55
2022-08-25T05:34:44.031Z,101109.36
2022-08-25T05:37:34.344Z,101111.71
2022-08-25T05:40:24.570Z,101107.98
2022-08-25T05:43:15.887Z,101110.34
2022-08-25T05:46:05.962Z,101110.36
2022-08-25T05:48:57.280Z,101110.58
2022-08-25T05:51:47.734Z,101114.69
2022-08-25T05:54:37.986Z,101113.33
2022-08-25T05:57:29.977Z,101117.14
2022-08-25T06:00:20.353Z,101118.38
2022-08-25T06:03:11.029Z,101116.34
2022-08-25T06:06:09.809Z,101117.98
2022-08-25T06:09:00.358Z,101113.33
2022-08-25T06:11:54.742Z,101114.76
2022-08-25T06:14:46.897Z,101121.16
2022-08-25T06:17:40.976Z,101124.77
2022-08-25T06:20:32.882Z,101121.02
2022-08-25T06:23:24.159Z,101122.42
2022-08-25T06:26:21.403Z,101119.58
2022-08-25T06:29:11.623Z,101117.83
2022-08-25T06:32:02.569Z,101117.13
2022-08-25T06:34:52.915Z,101117.91
2022-08-25T06:37:43.992Z,101113.72
2022-08-25T06:40:34.570Z,101110.31
2022-08-25T06:43:25.591Z,101110.77
2022-08-25T06:46:21.153Z,101105.91
2022-08-25T06:49:12.578Z,101103.79
2022-08-25T06:52:02.928Z,101106.39
2022-08-25T06:54:54.968Z,101104.23
2022-08-25T06:57:45.098Z,101105.70
2022-08-25T07:00:36.213Z,101101.81
2022-08-25T07:03:26.852Z,101103.83
2022-08-25T07:06:18.638Z,101100.19
2022-08-25T07:13:17.675Z,101097.69
2022-08-25T07:16:11.360Z,101097.98
2022-08-25T07:19:03.504Z,101102.45
2022-08-25T07:21:55.706Z,101102.40
2022-08-25T07:24:46.298Z,101098.75
2022-08-25T07:27:36.237Z,101098.25
2022-08-25T07:30:26.217Z,101099.27
2022-08-25T07:33:16.357Z,101096.52
2022-08-25T07:36:07.356Z,101098.99
2022-08-25T07:39:00.055Z,101107.38
2022-08-25T07:41:52.189Z,101106.21
2022-08-25T07:44:58.331Z,101105.29
2022-08-25T07:47:48.277Z,101106.83
2022-08-25T07:50:45.429Z,101112.16
2022-08-25T07:53:36.723Z,101112.29
2022-08-25T07:56:28.088Z,101112.80
2022-08-25T07:59:19.279Z,101112.39
2022-08-25T08:02:17.742Z,101119.45
2022-08-25T08:05:11.588Z,101119.25
2022-08-25T08:08:03.773Z,101118.72
2022-08-25T08:11:04.274Z,101121.11
2022-08-25T08:13:56.847Z,101129.13
2022-08-25T08:16:47.786Z,101136.63
2022-08-25T08:19:41.750Z,101136.70
2022-08-25T08:22:35.003Z,101141.77
2022-08-25T08:25:27.366Z,101134.84
2022-08-25T08:28:18.638Z,101139.34
2022-08-25T08:31:10.723Z,101139.52
2022-08-25T08:34:01.719Z,101143.63
2022-08-25T08:36:53.413Z,101142.11
2022-08-25T08:39:44.372Z,101144.60
2022-08-25T08:42:57.936Z,101145.34
2022-08-25T08:45:51.826Z,101145.96
2022-08-25T08:48:55.892Z,101149.52
2022-08-25T08:56:13.105Z,101147.17
2022-08-25T08:59:07.753Z,101145.50
2022-08-25T09:02:02.090Z,101144.10
2022-08-25T09:04:57.219Z,101143.61
2022-08-25T09:07:54.802Z,101143.89
2022-08-25T09:10:56.946Z,101141.31
2022-08-25T09:14:04.652Z,101140.75
2022-08-25T09:17:03.190Z,101133.89
2022-08-25T09:20:25.080Z,101130.59
2022-08-25T09:23:27.556Z,101129.34
2022-08-25T09:30:46.982Z,101124.62
2022-08-25T09:33:38.391Z,101118.30
2022-08-25T09:36:30.152Z,101115.48
2022-08-25T09:39:26.684Z,101122.66
2022-08-25T09:42:23.752Z,101120.94
2022-08-25T09:45:18.086Z,101117.45
2022-08-25T09:48:24.260Z,101120.98
2022-08-25T09:51:21.998Z,101118.85
2022-08-25T09:54:44.207Z,101118.15
2022-08-25T09:57:45.219Z,101112.27
2022-08-25T10:04:54.742Z,101114.20
2022-08-25T10:07:54.653Z,101116.52
2022-08-25T10:10:56.059Z,101114.16
2022-08-25T10:13:49.539Z,101119.70
2022-08-25T10:16:41.786Z,101118.22
2022-08-25T10:19:37.149Z,101115.42
2022-08-25T10:22:32.608Z,101109.53
2022-08-25T10:25:31.311Z,101104.79
2022-08-25T10:28:29.568Z,101103.02
2022-08-25T10:31:27.346Z,101098.27
2022-08-25T10:34:33.129Z,101097.71
2022-08-25T10:37:37.216Z,101090.87
2022-08-25T10:40:36.538Z,101091.42
2022-08-25T10:43:37.796Z,101091.39
2022-08-25T10:46:35.963Z,101092.38
2022-08-25T10:49:35.469Z,101089.38
2022-08-25T10:52:34.440Z,101089.59
2022-08-25T10:55:32.680Z,101089.67
2022-08-25T10:58:34.033Z,101085.16
2022-08-25T11:01:43.646Z,101089.27
2022-08-25T11:04:40.006Z,101090.66
2022-08-25T11:07:36.907Z,101087.77
2022-08-25T11:10:54.087Z,101084.04
2022-08-25T11:13:49.158Z,101084.67
2022-08-25T11:16:46.144Z,101086.39
2022-08-25T11:19:44.122Z,101083.64
2022-08-25T11:22:42.789Z,101082.26
2022-08-25T11:25:37.150Z,101077.73
2022-08-25T11:28:37.664Z,101076.83
2022-08-25T11:31:29.584Z,101075.35
2022-08-25T11:34:19.835Z,101078.42
2022-08-25T11:37:15.964Z,101080.16
2022-08-25T11:40:21.201Z,101079.86
2022-08-25T11:43:26.900Z,101075.80
2022-08-25T11:46:33.571Z,101073.65
2022-08-25T11:49:47.473Z,101075.11
2022-08-25T11:52:54.166Z,101067.30
2022-08-25T11:55:54.096Z,101066.11
2022-08-25T11:58:50.065Z,101065.89
2022-08-25T12:02:29.865Z,101060.31
2022-08-25T12:05:53.674Z,101058.86
2022-08-25T12:08:57.722Z,101063.98
2022-08-25T12:11:52.363Z,101061.28
2022-08-25T12:14:53.139Z,101059.36
2022-08-25T12:17:46.569Z,101057.97
2022-08-25T12:21:08.814Z,101058.96
2022-08-25T12:24:22.322Z,101055.77
2022-08-25T12:27:23.636Z,101051.14
2022-08-25T12:30:20.951Z,101046.27
2022-08-25T12:33:17.605Z,101045.17
2022-08-25T12:36:11.489Z,101042.89
2022-08-25T12:39:18.716Z,101046.05
2022-08-25T12:42:26.059Z,101042.55
2022-08-25T12:45:36.449Z,101042.95
2022-08-25T12:48:56.635Z,101043.20
2022-08-25T12:51:57.323Z,101045.23
2022-08-25T12:54:54.684Z,101039.90
2022-08-25T12:57:47.911Z,101032.72
2022-08-25T13:00:52.818Z,101030.56
2022-08-25T13:04:20.494Z,101030.27
2022-08-25T13:07:30.198Z,101027.55
2022-08-25T13:10:45.723Z,101027.38
2022-08-25T13:13:50.389Z,101026.65
2022-08-25T13:16:40.821Z,101024.23
2022-08-25T13:19:35.095Z,101018.57
2022-08-25T13:22:28.160Z,101015.61
2022-08-25T13:25:27.102Z,101013.62
2022-08-25T13:28:31.196Z,101018.36
2022-08-25T13:31:28.368Z,101015.42
2022-08-25T13:34:22.990Z,101009.44
2022-08-25T13:37:31.262Z,101005.51
2022-08-25T13:40:29.469Z,100999.55
2022-08-25T13:43:22.422Z,101000.27
2022-08-25T13:46:24.357Z,100999.80
2022-08-25T13:49:27.826Z,100998.97
2022-08-25T13:52:29.218Z,100995.00
2022-08-25T13:55:27.451Z,100997.31
2022-08-25T13:58:24.453Z,100994.75
2022-08-25T14:01:22.916Z,100991.52
2022-08-25T14:04:33.165Z,100995.65
2022-08-25T14:07:34.310Z,100986.05
2022-08-25T14:10:39.050Z,100984.44
2022-08-25T14:13:35.584Z,100989.27
2022-08-25T14:16:31.822Z,100988.24
2022-08-25T14:19:25.326Z,100987.35
2022-08-25T14:22:16.536Z,100983.50
2022-08-25T14:25:07.664Z,100983.41
2022-08-25T14:28:06.666Z,100978.15
2022-08-25T14:31:01.046Z,100976.79
2022-08-25T14:33:56.661Z,100977.06
2022-08-25T14:36:48.480Z,100979.19
2022-08-25T14:39:38.615Z,100979.39
2022-08-25T14:42:29.330Z,100977.90
2022-08-25T14:45:20.504Z,100977.59
2022-08-25T14:48:15.400Z,100973.73
2022-08-25T14:51:07.639Z,100975.25
2022-08-25T14:54:02.887Z,100972.00
2022-08-25T14:56:53.407Z,100970.67
2022-08-25T14:59:44.346Z,100965.91
2022-08-25T15:02:38.200Z,100969.48
2022-08-25T15:05:29.869Z,100967.36
2022-08-25T15:08:33.883Z,100968.79
2022-08-25T15:11:25.282Z,100966.77
2022-08-25T15:14:18.491Z,100964.71
2022-08-25T15:17:20.060Z,100961.27
2022-08-25T15:20:11.819Z,100956.63
2022-08-25T15:23:01.575Z,100954.04
2022-08-25T15:25:55.757Z,100953.16
2022-08-25T15:28:48.472Z,100952.87
2022-08-25T15:31:39.935Z,100955.00
2022-08-25T15:34:31.295Z,100949.48
2022-08-25T15:37:21.822Z,100949.34
2022-08-25T15:40:13.141Z,100946.84
2022-08-25T15:43:03.539Z,100946.90
2022-08-25T15:45:54.083Z,100947.61
2022-08-25T15:48:44.505Z,100941.71
2022-08-25T15:51:34.599Z,100937.64
2022-08-25T15:54:27.040Z,100937.46
2022-08-25T15:57:24.262Z,100935.50
2022-08-25T16:00:17.207Z,100929.66
2022-08-25T16:03:09.021Z,100930.09
2022-08-25T16:06:04.979Z,100924.12
2022-08-25T16:08:55.860Z,100920.85
2022-08-25T16:11:56.212Z,100921.70
2022-08-25T16:14:48.329Z,100920.04
2022-08-25T16:17:40.672Z,100918.64
2022-08-25T16:20:37.125Z,100912.06
2022-08-25T16:23:27.925Z,100912.02
2022-08-25T16:26:19.264Z,100911.02
2022-08-25T16:29:09.896Z,100909.58
2022-08-25T16:32:03.416Z,100906.15
2022-08-25T16:34:54.132Z,100900.58
2022-08-25T16:37:44.561Z,100901.28
2022-08-25T16:40:35.466Z,100894.94
2022-08-25T16:43:28.381Z,100893.16
2022-08-25T16:46:23.787Z,100891.27
2022-08-25T16:49:16.377Z,100888.49
2022-08-25T16:52:28.721Z,100885.65
2022-08-25T16:55:19.197Z,100883.48
2022-08-25T16:58:12.572Z,100876.61
2022-08-25T17:01:11.446Z,100874.56
2022-08-25T17:04:01.820Z,100871.13
2022-08-25T17:06:52.298Z,100871.61
2022-08-25T17:09:42.452Z,100876.63
2022-08-25T17:12:33.448Z,100874.86
2022-08-25T17:15:24.897Z,100869.33
2022-08-25T17:18:15.606Z,100866.97
2022-08-25T17:21:08.908Z,100866.30
2022-08-25T17:24:01.364Z,100866.61
2022-08-25T17:26:55.865Z,100866.91
2022-08-25T17:29:50.346Z,100865.13
2022-08-25T17:32:40.392Z,100865.27
2022-08-25T17:35:30.792Z,100866.96
2022-08-25T17:38:25.982Z,100867.11
2022-08-25T17:41:18.707Z,100866.69
2022-08-25T17:44:08.975Z,100860.95
2022-08-25T17:47:00.505Z,100860.64
2022-08-25T17:49:51.536Z,100861.63
2022-08-25T17:52:41.290Z,100857.60
2022-08-25T17:55:31.259Z,100861.02
2022-08-25T17:58:22.623Z,100860.02
2022-08-25T18:01:18.693Z,100857.52
2022-08-25T18:04:17.570Z,100854.64
2022-08-25T18:07:09.112Z,100854.44
2022-08-25T18:09:59.055Z,100860.72
2022-08-25T18:12:49.253Z,100858.44
2022-08-25T18:15:42.505Z,100859.81
2022-08-25T18:18:35.167Z,100861.95
2022-08-25T18:21:30.608Z,100864.39
2022-08-25T18:24:21.166Z,100863.81
2022-08-25T18:27:14.497Z,100861.39
2022-08-25T18:30:06.385Z,100860.25
2022-08-25T18:32:58.891Z,100863.43
2022-08-25T18:35:49.677Z,100864.70
2022-08-25T18:38:58.144Z,100866.61
2022-08-25T18:41:51.837Z,100867.13
2022-08-25T18:44:46.091Z,100872.56
2022-08-25T18:47:38.880Z,100871.39
2022-08-25T18:50:32.015Z,100875.30
2022-08-25T18:53:30.474Z,100881.12
2022-08-25T18:56:34.993Z,100880.15
2022-08-25T18:59:26.820Z,100884.48
2022-08-25T19:02:17.768Z,100888.13
2022-08-25T19:05:10.558Z,100896.95
2022-08-25T19:08:02.940Z,100897.11
2022-08-25T19:10:56.317Z,100900.84
2022-08-25T19:13:46.166Z,100896.80
2022-08-25T19:16:40.137Z,100895.80
2022-08-25T19:19:30.236Z,100901.48
2022-08-25T19:22:40.589Z,100914.03
2022-08-25T19:25:33.135Z,100912.08
2022-08-25T19:28:26.628Z,100914.69
2022-08-25T19:31:18.511Z,100916.68
2022-08-25T19:34:11.886Z,100921.27
2022-08-25T19:37:05.061Z,100921.41
2022-08-25T19:39:57.360Z,100919.84
2022-08-25T19:42:48.384Z,100924.48
2022-08-25T19:45:42.254Z,100927.46
2022-08-25T19:48:33.696Z,100930.84
2022-08-25T19:51:26.314Z,100932.62
2022-08-25T19:54:19.396Z,100934.90
2022-08-25T19:57:12.651Z,100935.95
2022-08-25T20:00:03.399Z,100933.73
2022-08-25T20:03:03.610Z,100928.99
2022-08-25T20:05:53.499Z,100929.66
2022-08-25T20:08:44.555Z,100932.68
2022-08-25T20:11:35.979Z,100934.09
2022-08-25T20:14:28.343Z,100932.81
2022-08-25T20:17:23.470Z,100936.27
2022-08-25T20:20:20.097Z,100934.44
2022-08-25T20:23:28.769Z,100935.70
2022-08-25T20:26:19.749Z,100934.83
2022-08-25T20:29:15.105Z,100931.09
2022-08-25T20:32:05.967Z,100934.54
2022-08-25T20:34:57.745Z,100934.92
2022-08-25T20:37:49.546Z,100935.65
2022-08-25T20:40:44.176Z,100933.64
2022-08-25T20:43:35.690Z,100931.79
2022-08-25T20:46:26.585Z,100934.64
2022-08-25T20:49:16.820Z,100932.48
2022-08-25T20:52:10.277Z,100933.64
2022-08-25T20:55:00.414Z,100934.90
2022-08-25T20:57:50.366Z,100932.08
2022-08-25T21:00:42.102Z,100933.92
2022-08-25T21:03:32.643Z,100943.77
2022-08-25T21:06:23.479Z,100944.69
2022-08-25T21:09:17.933Z,100945.82
2022-08-25T21:12:10.215Z,100949.55
2022-08-25T21:15:00.726Z,100955.78
2022-08-25T21:17:54.802Z,100954.31
2022-08-25T21:20:46.331Z,100956.34
2022-08-25T21:23:37.371Z,100957.99
2022-08-25T21:26:30.231Z,100961.31
2022-08-25T21:29:23.022Z,100962.24
2022-08-25T21:32:15.229Z,100962.63
2022-08-25T21:35:07.708Z,100959.11
2022-08-25T21:37:59.082Z,100964.64
2022-08-25T21:40:49.122Z,100966.13
2022-08-25T21:43:39.855Z,100964.81
2022-08-25T21:46:33.778Z,100961.63
2022-08-25T21:49:24.985Z,100967.14
2022-08-25T21:52:15.663Z,100971.58
2022-08-25T21:55:09.036Z,100971.54
2022-08-25T21:58:06.524Z,100971.54
2022-08-25T22:00:57.927Z,100972.29
2022-08-25T22:03:49.524Z,100972.54
2022-08-25T22:06:40.674Z,100970.36
2022-08-25T22:09:31.862Z,100969.68
2022-08-25T22:12:22.999Z,100971.04
2022-08-25T22:15:17.855Z,100969.77
2022-08-25T22:18:08.645Z,100970.19
2022-08-25T22:21:00.181Z,100973.20
2022-08-25T22:23:59.693Z,100974.56
2022-08-25T22:26:49.814Z,100975.67
2022-08-25T22:29:40.086Z,100976.04
2022-08-25T22:32:30.780Z,100976.13
2022-08-25T22:35:21.554Z,100975.38
2022-08-25T22:38:13.863Z,100977.05
2022-08-25T22:41:05.730Z,100977.74
2022-08-25T22:43:56.966Z,100977.55
2022-08-25T22:46:48.399Z,100978.13
2022-08-25T22:49:41.479Z,100975.26
2022-08-25T22:52:34.689Z,100969.46
2022-08-25T22:55:25.635Z,100969.52
2022-08-25T22:58:19.086Z,100968.11
2022-08-25T23:01:16.579Z,100962.17
2022-08-25T23:04:10.691Z,100967.40
2022-08-25T23:07:01.407Z,100966.48
2022-08-25T23:09:51.821Z,100960.36
2022-08-25T23:12:44.007Z,100954.40
2022-08-25T23:15:34.631Z,100949.17
2022-08-25T23:18:27.324Z,100945.21
2022-08-25T23:21:40.891Z,100935.35
2022-08-25T23:24:31.792Z,100930.08
2022-08-25T23:27:23.192Z,100922.69
2022-08-25T23:30:15.480Z,100926.19
2022-08-25T23:33:06.163Z,100920.02
2022-08-25T23:36:02.645Z,100916.27
2022-08-25T23:38:52.887Z,100917.13
2022-08-25T23:41:44.600Z,100912.33
2022-08-25T23:44:36.938Z,100913.66
2022-08-25T23:47:27.702Z,100915.53
2022-08-25T23:50:17.755Z,100916.38
2022-08-25T23:53:08.612Z,100922.71
2022-08-25T23:56:00.109Z,100918.70
2022-08-25T23:58:50.236Z,100919.59
